createdAt,value
2023-02-25T00:00:24.513Z,16.10
2023-02-25T00:05:27.535Z,15.55
2023-02-25T00:10:30.467Z,17.92
2023-02-25T00:15:32.644Z,17.33
2023-02-25T00:20:34.766Z,22.90
2023-02-25T00:25:37.062Z,18.98
2023-02-25T00:30:40.792Z,12.35
2023-02-25T00:35:42.944Z,11.60
2023-02-25T00:40:45.141Z,9.82
2023-02-25T00:45:47.568Z,14.18
2023-02-25T00:50:49.698Z,13.02
2023-02-25T00:55:59.548Z,17.88
2023-02-25T01:01:01.986Z,18.65
2023-02-25T01:06:04.406Z,11.23
2023-02-25T01:11:21.093Z,13.45
2023-02-25T01:16:26.796Z,13.60
2023-02-25T01:21:32.046Z,12.57
2023-02-25T01:26:36.942Z,22.65
2023-02-25T01:31:39.511Z,22.88
2023-02-25T01:36:44.204Z,17.77
2023-02-25T01:41:48.876Z,11.82
2023-02-25T01:46:53.552Z,16.30
2023-02-25T01:52:12.428Z,16.88
2023-02-25T01:57:17.273Z,22.25
2023-02-25T02:02:22.822Z,10.85
2023-02-25T02:07:25.037Z,15.68
2023-02-25T02:12:32.034Z,14.70
2023-02-25T02:17:50.688Z,22.40
2023-02-25T02:23:30.889Z,17.17
2023-02-25T02:29:07.792Z,17.23
2023-02-25T02:34:16.882Z,20.25
2023-02-25T02:39:26.646Z,18.20
2023-02-25T02:44:37.962Z,21.58
2023-02-25T02:50:00.533Z,25.90
2023-02-25T02:55:08.534Z,27.50
2023-02-25T03:00:18.682Z,32.58
2023-02-25T03:05:30.197Z,26.08
2023-02-25T03:10:33.094Z,21.80
2023-02-25T03:15:38.403Z,15.15
2023-02-25T03:20:44.986Z,19.45
2023-02-25T03:26:12.182Z,15.00
2023-02-25T03:31:48.080Z,18.60
2023-02-25T03:37:00.891Z,18.05
2023-02-25T03:42:05.805Z,9.05
2023-02-25T03:47:10.945Z,11.77
2023-02-25T03:52:19.986Z,12.60
2023-02-25T03:57:33.981Z,12.52
2023-02-25T04:02:36.368Z,9.30
2023-02-25T04:07:39.378Z,20.40
2023-02-25T04:12:42.453Z,13.35
2023-02-25T04:17:45.702Z,11.00
2023-02-25T04:22:48.407Z,11.13
2023-02-25T04:27:50.646Z,12.98
2023-02-25T04:32:52.991Z,18.85
2023-02-25T04:37:55.192Z,18.05
2023-02-25T04:42:57.409Z,19.15
2023-02-25T04:47:59.560Z,20.35
2023-02-25T04:53:05.295Z,16.63
2023-02-25T04:58:07.461Z,17.02
2023-02-25T05:03:09.537Z,15.88
2023-02-25T05:08:11.694Z,12.32
2023-02-25T05:13:13.905Z,15.90
2023-02-25T05:18:16.663Z,11.77
2023-02-25T05:23:18.786Z,25.23
2023-02-25T05:28:20.887Z,20.48
2023-02-25T05:33:27.270Z,27.80
2023-02-25T05:38:29.554Z,11.93
2023-02-25T05:43:31.893Z,10.48
2023-02-25T05:48:34.032Z,8.50
2023-02-25T05:53:37.327Z,10.98
2023-02-25T05:58:39.807Z,17.50
2023-02-25T06:03:47.901Z,11.40
2023-02-25T06:08:50.539Z,11.38
2023-02-25T06:13:54.810Z,10.68
2023-02-25T06:18:56.953Z,10.82
2023-02-25T06:23:59.819Z,6.97
2023-02-25T06:29:01.900Z,7.47
2023-02-25T06:34:04.587Z,7.95
2023-02-25T06:39:06.816Z,8.27
2023-02-25T06:44:08.955Z,7.22
2023-02-25T06:49:12.555Z,4.80
2023-02-25T06:54:14.906Z,7.93
2023-02-25T06:59:17.270Z,14.85
2023-02-25T07:04:19.731Z,8.07
2023-02-25T07:09:21.941Z,12.63
2023-02-25T07:14:24.199Z,6.28
2023-02-25T07:19:26.390Z,8.52
2023-02-25T07:24:28.611Z,13.52
2023-02-25T07:29:31.848Z,6.30
2023-02-25T07:34:33.961Z,10.30
2023-02-25T07:39:36.179Z,13.77
2023-02-25T07:44:38.397Z,11.82
2023-02-25T07:49:40.514Z,8.70
2023-02-25T07:54:42.743Z,6.32
2023-02-25T07:59:44.893Z,3.88
2023-02-25T08:04:47.543Z,5.63
2023-02-25T08:09:49.719Z,10.52
2023-02-25T08:14:52.075Z,3.10
2023-02-25T08:19:54.736Z,6.50
2023-02-25T08:24:57.038Z,11.27
2023-02-25T08:29:59.176Z,15.55
2023-02-25T08:35:01.561Z,10.23
2023-02-25T08:40:07.842Z,9.65
2023-02-25T08:45:10.678Z,9.13
2023-02-25T08:50:13.435Z,8.32
2023-02-25T08:55:16.080Z,12.32
2023-02-25T09:00:18.569Z,2.65
2023-02-25T09:05:20.913Z,14.27
2023-02-25T09:10:24.002Z,10.95
2023-02-25T09:15:26.335Z,11.38
2023-02-25T09:20:28.570Z,6.88
2023-02-25T09:25:30.797Z,9.70
2023-02-25T09:30:32.988Z,13.05
2023-02-25T09:35:35.195Z,14.68
2023-02-25T09:40:40.390Z,8.30
2023-02-25T09:45:47.320Z,12.02
2023-02-25T09:50:53.358Z,13.85
2023-02-25T09:55:56.199Z,7.15
2023-02-25T10:01:16.863Z,13.10
2023-02-25T10:06:34.443Z,8.93
2023-02-25T10:12:00.997Z,8.55
2023-02-25T10:17:03.578Z,9.80
2023-02-25T10:22:30.122Z,11.13
2023-02-25T10:27:41.311Z,7.07
2023-02-25T10:32:45.593Z,9.85
2023-02-25T10:37:47.812Z,8.18
2023-02-25T10:42:52.470Z,2.88
2023-02-25T10:48:12.247Z,5.85
2023-02-25T10:53:36.997Z,8.80
2023-02-25T10:58:45.119Z,15.90
2023-02-25T11:03:56.010Z,9.37
2023-02-25T11:09:24.178Z,8.77
2023-02-25T11:14:29.054Z,8.68
2023-02-25T11:19:37.045Z,11.68
2023-02-25T11:24:39.712Z,12.00
2023-02-25T11:29:46.579Z,6.82
2023-02-25T11:34:53.404Z,3.92
2023-02-25T11:39:58.188Z,8.57
2023-02-25T11:45:05.257Z,6.70
2023-02-25T11:50:37.550Z,5.68
2023-02-25T11:56:18.071Z,18.75
2023-02-25T12:01:40.887Z,6.70
2023-02-25T12:07:11.417Z,5.53
2023-02-25T12:12:47.108Z,4.28
2023-02-25T12:18:11.978Z,7.72
2023-02-25T12:23:26.424Z,7.90
2023-02-25T12:28:53.127Z,10.75
2023-02-25T12:34:36.554Z,9.70
2023-02-25T12:39:41.782Z,9.50
2023-02-25T12:44:49.776Z,5.97
2023-02-25T12:50:29.552Z,9.27
2023-02-25T12:55:56.726Z,3.15
2023-02-25T13:01:06.368Z,12.43
2023-02-25T13:06:33.038Z,10.18
2023-02-25T13:17:35.524Z,13.13
2023-02-25T13:23:01.786Z,6.80
2023-02-25T13:28:42.008Z,7.82
2023-02-25T13:34:09.150Z,3.22
2023-02-25T13:39:49.204Z,5.38
2023-02-25T13:45:19.016Z,3.75
2023-02-25T13:51:02.108Z,6.85
2023-02-25T13:56:38.205Z,15.05
2023-02-25T14:02:04.040Z,7.03
2023-02-25T14:07:42.851Z,3.85
2023-02-25T14:13:03.886Z,4.50
2023-02-25T14:18:12.258Z,7.15
2023-02-25T14:23:44.945Z,5.10
2023-02-25T14:29:16.298Z,4.68
2023-02-25T14:34:39.978Z,4.22
2023-02-25T14:40:03.496Z,4.47
2023-02-25T14:45:14.037Z,7.55
2023-02-25T14:50:26.265Z,3.85
2023-02-25T14:55:46.864Z,7.03
2023-02-25T15:01:07.851Z,2.75
2023-02-25T15:06:44.786Z,5.05
2023-02-25T15:11:58.447Z,6.07
2023-02-25T15:17:44.383Z,4.88
2023-02-25T15:23:06.943Z,3.60
2023-02-25T15:28:30.665Z,6.28
2023-02-25T15:33:42.646Z,4.47
2023-02-25T15:38:55.572Z,9.52
2023-02-25T15:44:02.755Z,7.85
2023-02-25T15:49:07.831Z,8.88
2023-02-25T15:54:30.206Z,7.03
2023-02-25T15:59:42.984Z,6.80
2023-02-25T16:04:48.921Z,13.10
2023-02-25T16:09:57.559Z,6.72
2023-02-25T16:15:00.859Z,11.30
2023-02-25T16:20:17.940Z,12.20
2023-02-25T16:25:49.627Z,10.68
2023-02-25T16:31:03.375Z,9.63
2023-02-25T16:36:11.627Z,6.75
2023-02-25T16:41:15.179Z,4.57
2023-02-25T16:46:22.211Z,12.10
2023-02-25T16:51:32.134Z,6.68
2023-02-25T16:56:35.939Z,5.10
2023-02-25T17:01:39.231Z,7.53
2023-02-25T17:06:42.038Z,6.13
2023-02-25T17:11:44.260Z,7.20
2023-02-25T17:16:47.964Z,7.10
2023-02-25T17:21:56.863Z,5.40
2023-02-25T17:27:00.431Z,15.02
2023-02-25T17:32:13.551Z,18.02
2023-02-25T17:37:17.098Z,4.57
2023-02-25T17:42:31.327Z,14.60
2023-02-25T17:47:35.499Z,6.85
2023-02-25T17:52:38.252Z,6.00
2023-02-25T17:57:42.809Z,4.10
2023-02-25T18:02:45.442Z,7.32
2023-02-25T18:08:08.438Z,11.77
2023-02-25T18:13:20.283Z,7.53
2023-02-25T18:18:23.036Z,9.68
2023-02-25T18:23:27.780Z,5.70
2023-02-25T18:28:30.016Z,14.55
2023-02-25T18:33:32.351Z,13.15
2023-02-25T18:38:37.619Z,18.35
2023-02-25T18:43:42.045Z,7.97
2023-02-25T18:48:44.141Z,11.60
2023-02-25T18:53:46.777Z,12.43
2023-02-25T18:58:48.944Z,13.85
2023-02-25T19:03:53.610Z,6.10
2023-02-25T19:08:55.709Z,13.43
2023-02-25T19:13:58.149Z,9.77
2023-02-25T19:19:00.280Z,9.30
2023-02-25T19:24:03.643Z,7.80
2023-02-25T19:29:06.618Z,9.63
2023-02-25T19:34:09.410Z,12.32
2023-02-25T19:39:11.496Z,14.55
2023-02-25T19:44:13.842Z,15.45
2023-02-25T19:49:15.903Z,16.42
2023-02-25T19:54:19.522Z,14.35
2023-02-25T19:59:21.612Z,13.10
2023-02-25T20:04:24.071Z,11.07
2023-02-25T20:09:26.280Z,10.65
2023-02-25T20:14:29.392Z,11.23
2023-02-25T20:19:33.027Z,15.98
2023-02-25T20:24:35.431Z,11.60
2023-02-25T20:29:37.576Z,11.27
2023-02-25T20:34:39.890Z,10.57
2023-02-25T20:39:48.060Z,10.02
2023-02-25T20:44:52.654Z,14.05
2023-02-25T20:49:56.224Z,8.25
2023-02-25T20:54:58.382Z,17.17
2023-02-25T21:00:00.574Z,16.58
2023-02-25T21:05:02.821Z,9.07
2023-02-25T21:10:05.281Z,8.15
2023-02-25T21:15:07.964Z,10.52
2023-02-25T21:20:11.245Z,8.70
2023-02-25T21:25:13.329Z,16.73
2023-02-25T21:30:15.745Z,19.50
2023-02-25T21:35:21.232Z,8.88
2023-02-25T21:40:23.293Z,13.27
2023-02-25T21:45:29.045Z,15.02
2023-02-25T21:50:31.933Z,3.90
2023-02-25T21:55:34.093Z,3.70
2023-02-25T22:00:36.298Z,10.43
2023-02-25T22:05:47.207Z,15.85
2023-02-25T22:10:49.298Z,8.48
2023-02-25T22:15:51.828Z,10.40
2023-02-25T22:21:02.969Z,7.38
2023-02-25T22:26:08.042Z,10.07
2023-02-25T22:31:16.506Z,5.28
2023-02-25T22:36:19.650Z,6.97
2023-02-25T22:41:27.919Z,5.45
2023-02-25T22:46:32.489Z,4.10
2023-02-25T22:51:43.636Z,10.57
2023-02-25T22:56:47.111Z,5.45
2023-02-25T23:01:49.288Z,7.28
2023-02-25T23:06:54.101Z,8.93
2023-02-25T23:11:56.349Z,4.57
2023-02-25T23:16:58.446Z,11.05
2023-02-25T23:22:00.879Z,4.05
2023-02-25T23:27:03.658Z,4.78
2023-02-25T23:32:06.454Z,5.38
2023-02-25T23:37:08.609Z,3.22
2023-02-25T23:42:11.022Z,8.95
2023-02-25T23:47:13.190Z,6.97
2023-02-25T23:52:15.408Z,9.63
2023-02-25T23:57:17.742Z,5.18
